sensor_id;sensor_type;location;lat;lon;timestamp;P1;durP1;ratioP1;P2;durP2;ratioP2
64907;SDS011;51412;52.236;5.188;2022-08-19T00:00:29;11.35;;;7.70;;
64907;SDS011;51412;52.236;5.188;2022-08-19T00:02:56;10.00;;;7.97;;
64907;SDS011;51412;52.236;5.188;2022-08-19T00:05:22;11.15;;;8.32;;
64907;SDS011;51412;52.236;5.188;2022-08-19T00:07:50;11.55;;;8.10;;
64907;SDS011;51412;52.236;5.188;2022-08-19T00:10:17;10.30;;;7.63;;
64907;SDS011;51412;52.236;5.188;2022-08-19T00:12:44;9.02;;;7.90;;
64907;SDS011;51412;52.236;5.188;2022-08-19T00:15:12;10.80;;;7.93;;
64907;SDS011;51412;52.236;5.188;2022-08-19T00:17:42;9.57;;;7.72;;
64907;SDS011;51412;52.236;5.188;2022-08-19T00:20:10;9.45;;;7.70;;
64907;SDS011;51412;52.236;5.188;2022-08-19T00:22:38;10.27;;;8.20;;
64907;SDS011;51412;52.236;5.188;2022-08-19T00:25:07;11.60;;;8.10;;
64907;SDS011;51412;52.236;5.188;2022-08-19T00:27:34;11.43;;;7.35;;
64907;SDS011;51412;52.236;5.188;2022-08-19T00:30:01;10.15;;;7.43;;
64907;SDS011;51412;52.236;5.188;2022-08-19T00:32:30;9.77;;;7.28;;
64907;SDS011;51412;52.236;5.188;2022-08-19T00:34:57;9.25;;;6.85;;
64907;SDS011;51412;52.236;5.188;2022-08-19T00:37:24;10.82;;;6.97;;
64907;SDS011;51412;52.236;5.188;2022-08-19T00:39:51;10.02;;;7.28;;
64907;SDS011;51412;52.236;5.188;2022-08-19T00:42:20;10.23;;;7.82;;
64907;SDS011;51412;52.236;5.188;2022-08-19T00:44:47;11.85;;;8.00;;
64907;SDS011;51412;52.236;5.188;2022-08-19T00:47:14;10.55;;;8.13;;
64907;SDS011;51412;52.236;5.188;2022-08-19T00:49:41;9.68;;;7.78;;
64907;SDS011;51412;52.236;5.188;2022-08-19T00:52:16;11.23;;;7.93;;
64907;SDS011;51412;52.236;5.188;2022-08-19T00:54:46;10.07;;;8.23;;
64907;SDS011;51412;52.236;5.188;2022-08-19T00:57:14;8.98;;;7.38;;
64907;SDS011;51412;52.236;5.188;2022-08-19T00:59:45;8.40;;;7.53;;
64907;SDS011;51412;52.236;5.188;2022-08-19T01:02:14;9.98;;;7.55;;
64907;SDS011;51412;52.236;5.188;2022-08-19T01:04:41;12.73;;;7.80;;
64907;SDS011;51412;52.236;5.188;2022-08-19T01:07:07;11.18;;;8.23;;
64907;SDS011;51412;52.236;5.188;2022-08-19T01:09:34;10.35;;;8.45;;
64907;SDS011;51412;52.236;5.188;2022-08-19T01:12:00;10.07;;;7.70;;
64907;SDS011;51412;52.236;5.188;2022-08-19T01:14:28;9.88;;;8.00;;
64907;SDS011;51412;52.236;5.188;2022-08-19T01:16:57;10.48;;;7.53;;
64907;SDS011;51412;52.236;5.188;2022-08-19T01:19:26;10.05;;;8.05;;
64907;SDS011;51412;52.236;5.188;2022-08-19T01:21:55;10.68;;;7.95;;
64907;SDS011;51412;52.236;5.188;2022-08-19T01:24:28;9.65;;;8.02;;
64907;SDS011;51412;52.236;5.188;2022-08-19T01:26:55;9.50;;;7.75;;
64907;SDS011;51412;52.236;5.188;2022-08-19T01:29:22;9.00;;;7.32;;
64907;SDS011;51412;52.236;5.188;2022-08-19T01:31:48;9.07;;;7.78;;
64907;SDS011;51412;52.236;5.188;2022-08-19T01:34:18;11.25;;;7.47;;
64907;SDS011;51412;52.236;5.188;2022-08-19T01:36:45;10.63;;;8.25;;
64907;SDS011;51412;52.236;5.188;2022-08-19T01:39:15;10.90;;;8.23;;
64907;SDS011;51412;52.236;5.188;2022-08-19T01:41:45;11.82;;;8.35;;
64907;SDS011;51412;52.236;5.188;2022-08-19T01:44:12;9.25;;;7.80;;
64907;SDS011;51412;52.236;5.188;2022-08-19T01:46:38;10.93;;;7.50;;
64907;SDS011;51412;52.236;5.188;2022-08-19T01:49:05;10.73;;;7.72;;
64907;SDS011;51412;52.236;5.188;2022-08-19T01:51:32;9.30;;;7.43;;
64907;SDS011;51412;52.236;5.188;2022-08-19T01:53:58;9.55;;;7.57;;
64907;SDS011;51412;52.236;5.188;2022-08-19T01:56:25;11.15;;;7.53;;
64907;SDS011;51412;52.236;5.188;2022-08-19T01:58:54;9.38;;;7.45;;
64907;SDS011;51412;52.236;5.188;2022-08-19T02:01:23;9.25;;;7.10;;
64907;SDS011;51412;52.236;5.188;2022-08-19T02:03:50;8.32;;;7.15;;
64907;SDS011;51412;52.236;5.188;2022-08-19T02:06:16;8.88;;;7.20;;
64907;SDS011;51412;52.236;5.188;2022-08-19T02:08:43;8.93;;;7.18;;
64907;SDS011;51412;52.236;5.188;2022-08-19T02:11:18;10.50;;;7.38;;
64907;SDS011;51412;52.236;5.188;2022-08-19T02:13:46;8.85;;;7.63;;
64907;SDS011;51412;52.236;5.188;2022-08-19T02:16:15;7.95;;;6.80;;
64907;SDS011;51412;52.236;5.188;2022-08-19T02:18:42;9.65;;;7.57;;
64907;SDS011;51412;52.236;5.188;2022-08-19T02:21:09;8.57;;;7.55;;
64907;SDS011;51412;52.236;5.188;2022-08-19T02:23:35;10.93;;;7.65;;
64907;SDS011;51412;52.236;5.188;2022-08-19T02:26:02;8.50;;;7.03;;
64907;SDS011;51412;52.236;5.188;2022-08-19T02:28:28;8.38;;;6.70;;
64907;SDS011;51412;52.236;5.188;2022-08-19T02:30:55;8.65;;;7.38;;
64907;SDS011;51412;52.236;5.188;2022-08-19T02:33:23;9.65;;;7.57;;
64907;SDS011;51412;52.236;5.188;2022-08-19T02:35:49;7.80;;;6.68;;
64907;SDS011;51412;52.236;5.188;2022-08-19T02:38:16;7.70;;;6.50;;
64907;SDS011;51412;52.236;5.188;2022-08-19T02:40:51;9.18;;;6.85;;
64907;SDS011;51412;52.236;5.188;2022-08-19T02:43:20;8.60;;;6.47;;
64907;SDS011;51412;52.236;5.188;2022-08-19T02:45:47;8.52;;;6.57;;
64907;SDS011;51412;52.236;5.188;2022-08-19T02:48:14;6.90;;;5.82;;
64907;SDS011;51412;52.236;5.188;2022-08-19T02:50:43;9.00;;;6.40;;
64907;SDS011;51412;52.236;5.188;2022-08-19T02:53:10;20.42;;;6.85;;
64907;SDS011;51412;52.236;5.188;2022-08-19T02:55:42;9.23;;;6.65;;
64907;SDS011;51412;52.236;5.188;2022-08-19T02:58:10;10.02;;;6.00;;
64907;SDS011;51412;52.236;5.188;2022-08-19T03:00:40;9.23;;;7.28;;
64907;SDS011;51412;52.236;5.188;2022-08-19T03:03:09;7.97;;;7.05;;
64907;SDS011;51412;52.236;5.188;2022-08-19T03:05:35;8.23;;;6.82;;
64907;SDS011;51412;52.236;5.188;2022-08-19T03:08:03;8.93;;;7.30;;
64907;SDS011;51412;52.236;5.188;2022-08-19T03:10:30;9.48;;;7.10;;
64907;SDS011;51412;52.236;5.188;2022-08-19T03:12:57;9.60;;;7.07;;
64907;SDS011;51412;52.236;5.188;2022-08-19T03:15:24;8.30;;;7.05;;
64907;SDS011;51412;52.236;5.188;2022-08-19T03:17:51;8.65;;;6.47;;
64907;SDS011;51412;52.236;5.188;2022-08-19T03:20:17;10.05;;;7.82;;
64907;SDS011;51412;52.236;5.188;2022-08-19T03:22:44;10.38;;;7.45;;
64907;SDS011;51412;52.236;5.188;2022-08-19T03:25:12;9.65;;;8.05;;
64907;SDS011;51412;52.236;5.188;2022-08-19T03:27:38;11.40;;;7.88;;
64907;SDS011;51412;52.236;5.188;2022-08-19T03:30:05;10.95;;;7.80;;
64907;SDS011;51412;52.236;5.188;2022-08-19T03:32:32;11.88;;;9.20;;
64907;SDS011;51412;52.236;5.188;2022-08-19T03:34:59;12.77;;;9.10;;
64907;SDS011;51412;52.236;5.188;2022-08-19T03:37:26;10.60;;;8.43;;
64907;SDS011;51412;52.236;5.188;2022-08-19T03:39:53;10.65;;;8.65;;
64907;SDS011;51412;52.236;5.188;2022-08-19T03:42:21;12.38;;;9.25;;
64907;SDS011;51412;52.236;5.188;2022-08-19T03:44:47;13.93;;;9.55;;
64907;SDS011;51412;52.236;5.188;2022-08-19T03:47:14;12.77;;;9.98;;
64907;SDS011;51412;52.236;5.188;2022-08-19T03:49:41;13.55;;;9.60;;
64907;SDS011;51412;52.236;5.188;2022-08-19T03:52:08;13.50;;;9.20;;
64907;SDS011;51412;52.236;5.188;2022-08-19T03:54:35;13.43;;;9.35;;
64907;SDS011;51412;52.236;5.188;2022-08-19T03:57:03;13.30;;;9.90;;
64907;SDS011;51412;52.236;5.188;2022-08-19T03:59:33;15.15;;;10.57;;
64907;SDS011;51412;52.236;5.188;2022-08-19T04:02:03;14.27;;;10.18;;
64907;SDS011;51412;52.236;5.188;2022-08-19T04:04:33;16.55;;;10.80;;
64907;SDS011;51412;52.236;5.188;2022-08-19T04:07:00;15.05;;;10.63;;
64907;SDS011;51412;52.236;5.188;2022-08-19T04:09:27;13.13;;;10.18;;
64907;SDS011;51412;52.236;5.188;2022-08-19T04:11:54;13.68;;;9.45;;
64907;SDS011;51412;52.236;5.188;2022-08-19T04:14:23;14.48;;;10.10;;
64907;SDS011;51412;52.236;5.188;2022-08-19T04:16:55;15.80;;;10.93;;
64907;SDS011;51412;52.236;5.188;2022-08-19T04:19:22;14.88;;;11.40;;
64907;SDS011;51412;52.236;5.188;2022-08-19T04:21:49;14.02;;;9.23;;
64907;SDS011;51412;52.236;5.188;2022-08-19T04:24:18;15.63;;;10.90;;
64907;SDS011;51412;52.236;5.188;2022-08-19T04:26:45;15.20;;;10.52;;
64907;SDS011;51412;52.236;5.188;2022-08-19T04:29:13;15.48;;;10.63;;
64907;SDS011;51412;52.236;5.188;2022-08-19T04:31:42;15.75;;;11.25;;
64907;SDS011;51412;52.236;5.188;2022-08-19T04:34:12;14.18;;;10.50;;
64907;SDS011;51412;52.236;5.188;2022-08-19T04:36:41;16.60;;;10.98;;
64907;SDS011;51412;52.236;5.188;2022-08-19T04:39:10;16.90;;;11.18;;
64907;SDS011;51412;52.236;5.188;2022-08-19T04:41:39;14.63;;;10.50;;
64907;SDS011;51412;52.236;5.188;2022-08-19T04:44:23;17.08;;;11.35;;
64907;SDS011;51412;52.236;5.188;2022-08-19T04:46:50;15.35;;;10.85;;
64907;SDS011;51412;52.236;5.188;2022-08-19T04:49:19;17.92;;;11.05;;
64907;SDS011;51412;52.236;5.188;2022-08-19T04:51:47;16.55;;;10.15;;
64907;SDS011;51412;52.236;5.188;2022-08-19T04:54:15;13.27;;;10.40;;
64907;SDS011;51412;52.236;5.188;2022-08-19T04:56:42;15.20;;;11.02;;
64907;SDS011;51412;52.236;5.188;2022-08-19T04:59:09;14.95;;;11.50;;
64907;SDS011;51412;52.236;5.188;2022-08-19T05:01:36;13.63;;;10.27;;
64907;SDS011;51412;52.236;5.188;2022-08-19T05:04:03;17.67;;;12.35;;
64907;SDS011;51412;52.236;5.188;2022-08-19T05:06:32;14.20;;;11.05;;
64907;SDS011;51412;52.236;5.188;2022-08-19T05:08:59;16.75;;;11.73;;
64907;SDS011;51412;52.236;5.188;2022-08-19T05:11:29;16.08;;;11.65;;
64907;SDS011;51412;52.236;5.188;2022-08-19T05:13:57;14.75;;;11.10;;
64907;SDS011;51412;52.236;5.188;2022-08-19T05:16:24;18.80;;;12.55;;
64907;SDS011;51412;52.236;5.188;2022-08-19T05:18:51;18.63;;;12.57;;
64907;SDS011;51412;52.236;5.188;2022-08-19T05:21:38;18.15;;;11.20;;
64907;SDS011;51412;52.236;5.188;2022-08-19T05:24:23;17.15;;;12.77;;
64907;SDS011;51412;52.236;5.188;2022-08-19T05:26:51;18.05;;;13.13;;
64907;SDS011;51412;52.236;5.188;2022-08-19T05:29:21;18.33;;;12.50;;
64907;SDS011;51412;52.236;5.188;2022-08-19T05:31:49;23.63;;;14.77;;
64907;SDS011;51412;52.236;5.188;2022-08-19T05:34:18;24.55;;;14.52;;
64907;SDS011;51412;52.236;5.188;2022-08-19T05:36:50;30.20;;;17.50;;
64907;SDS011;51412;52.236;5.188;2022-08-19T05:39:22;27.75;;;18.60;;
64907;SDS011;51412;52.236;5.188;2022-08-19T05:41:51;27.85;;;17.88;;
64907;SDS011;51412;52.236;5.188;2022-08-19T05:44:19;40.03;;;24.85;;
64907;SDS011;51412;52.236;5.188;2022-08-19T05:46:47;45.78;;;25.77;;
64907;SDS011;51412;52.236;5.188;2022-08-19T05:49:13;46.53;;;29.35;;
64907;SDS011;51412;52.236;5.188;2022-08-19T05:51:42;40.20;;;25.23;;
64907;SDS011;51412;52.236;5.188;2022-08-19T05:54:10;49.40;;;27.58;;
64907;SDS011;51412;52.236;5.188;2022-08-19T05:56:38;51.25;;;29.80;;
64907;SDS011;51412;52.236;5.188;2022-08-19T05:59:06;49.70;;;29.25;;
64907;SDS011;51412;52.236;5.188;2022-08-19T06:01:36;51.88;;;31.35;;
64907;SDS011;51412;52.236;5.188;2022-08-19T06:04:04;54.63;;;30.45;;
64907;SDS011;51412;52.236;5.188;2022-08-19T06:06:31;52.45;;;28.92;;
64907;SDS011;51412;52.236;5.188;2022-08-19T06:08:59;51.50;;;28.92;;
64907;SDS011;51412;52.236;5.188;2022-08-19T06:11:33;47.58;;;26.92;;
64907;SDS011;51412;52.236;5.188;2022-08-19T06:14:03;56.03;;;29.90;;
64907;SDS011;51412;52.236;5.188;2022-08-19T06:16:33;49.10;;;30.70;;
64907;SDS011;51412;52.236;5.188;2022-08-19T06:19:00;46.25;;;27.45;;
64907;SDS011;51412;52.236;5.188;2022-08-19T06:21:29;51.90;;;29.38;;
64907;SDS011;51412;52.236;5.188;2022-08-19T06:23:56;34.85;;;20.55;;
64907;SDS011;51412;52.236;5.188;2022-08-19T06:26:23;45.20;;;26.58;;
64907;SDS011;51412;52.236;5.188;2022-08-19T06:28:52;52.42;;;28.52;;
64907;SDS011;51412;52.236;5.188;2022-08-19T06:31:21;36.65;;;21.48;;
64907;SDS011;51412;52.236;5.188;2022-08-19T06:33:49;54.75;;;29.08;;
64907;SDS011;51412;52.236;5.188;2022-08-19T06:36:19;59.78;;;32.53;;
64907;SDS011;51412;52.236;5.188;2022-08-19T06:38:55;48.33;;;27.70;;
64907;SDS011;51412;52.236;5.188;2022-08-19T06:41:22;53.92;;;30.38;;
64907;SDS011;51412;52.236;5.188;2022-08-19T06:43:49;45.63;;;25.88;;
64907;SDS011;51412;52.236;5.188;2022-08-19T06:46:17;61.15;;;30.10;;
64907;SDS011;51412;52.236;5.188;2022-08-19T06:48:45;60.85;;;28.55;;
64907;SDS011;51412;52.236;5.188;2022-08-19T06:51:12;55.13;;;31.52;;
64907;SDS011;51412;52.236;5.188;2022-08-19T06:53:40;43.92;;;23.85;;
64907;SDS011;51412;52.236;5.188;2022-08-19T06:56:12;52.80;;;30.30;;
64907;SDS011;51412;52.236;5.188;2022-08-19T06:58:39;44.17;;;27.35;;
64907;SDS011;51412;52.236;5.188;2022-08-19T07:01:06;62.22;;;33.10;;
64907;SDS011;51412;52.236;5.188;2022-08-19T07:03:34;56.03;;;31.70;;
64907;SDS011;51412;52.236;5.188;2022-08-19T07:06:03;58.92;;;31.63;;
64907;SDS011;51412;52.236;5.188;2022-08-19T07:08:30;61.25;;;33.45;;
64907;SDS011;51412;52.236;5.188;2022-08-19T07:10:56;59.38;;;31.75;;
64907;SDS011;51412;52.236;5.188;2022-08-19T07:13:23;64.15;;;32.78;;
64907;SDS011;51412;52.236;5.188;2022-08-19T07:15:50;64.97;;;33.33;;
64907;SDS011;51412;52.236;5.188;2022-08-19T07:18:17;67.20;;;35.72;;
64907;SDS011;51412;52.236;5.188;2022-08-19T07:20:46;54.85;;;30.02;;
64907;SDS011;51412;52.236;5.188;2022-08-19T07:23:13;69.68;;;36.80;;
64907;SDS011;51412;52.236;5.188;2022-08-19T07:25:40;78.43;;;40.78;;
64907;SDS011;51412;52.236;5.188;2022-08-19T07:28:07;76.60;;;40.92;;
64907;SDS011;51412;52.236;5.188;2022-08-19T07:30:35;67.07;;;36.33;;
64907;SDS011;51412;52.236;5.188;2022-08-19T07:33:02;73.97;;;37.40;;
64907;SDS011;51412;52.236;5.188;2022-08-19T07:35:29;75.38;;;40.13;;
64907;SDS011;51412;52.236;5.188;2022-08-19T07:37:58;74.60;;;42.25;;
64907;SDS011;51412;52.236;5.188;2022-08-19T07:40:28;72.55;;;37.92;;
64907;SDS011;51412;52.236;5.188;2022-08-19T07:42:55;78.60;;;39.25;;
64907;SDS011;51412;52.236;5.188;2022-08-19T07:45:21;76.68;;;41.08;;
64907;SDS011;51412;52.236;5.188;2022-08-19T07:47:48;77.80;;;40.95;;
64907;SDS011;51412;52.236;5.188;2022-08-19T07:50:15;78.57;;;40.45;;
64907;SDS011;51412;52.236;5.188;2022-08-19T07:52:43;77.00;;;44.15;;
64907;SDS011;51412;52.236;5.188;2022-08-19T07:55:11;86.75;;;46.60;;
64907;SDS011;51412;52.236;5.188;2022-08-19T07:57:38;78.82;;;44.70;;
64907;SDS011;51412;52.236;5.188;2022-08-19T08:00:05;89.03;;;45.15;;
64907;SDS011;51412;52.236;5.188;2022-08-19T08:02:33;86.22;;;48.25;;
64907;SDS011;51412;52.236;5.188;2022-08-19T08:04:59;82.18;;;45.00;;
64907;SDS011;51412;52.236;5.188;2022-08-19T08:07:43;84.05;;;43.92;;
64907;SDS011;51412;52.236;5.188;2022-08-19T08:10:28;83.28;;;42.67;;
64907;SDS011;51412;52.236;5.188;2022-08-19T08:12:55;83.70;;;43.67;;
64907;SDS011;51412;52.236;5.188;2022-08-19T08:15:21;78.65;;;43.83;;
64907;SDS011;51412;52.236;5.188;2022-08-19T08:17:48;78.55;;;41.50;;
64907;SDS011;51412;52.236;5.188;2022-08-19T08:20:15;63.50;;;37.13;;
64907;SDS011;51412;52.236;5.188;2022-08-19T08:22:42;80.50;;;46.00;;
64907;SDS011;51412;52.236;5.188;2022-08-19T08:25:29;78.10;;;43.65;;
64907;SDS011;51412;52.236;5.188;2022-08-19T08:27:56;79.35;;;44.35;;
64907;SDS011;51412;52.236;5.188;2022-08-19T08:30:25;79.78;;;44.20;;
64907;SDS011;51412;52.236;5.188;2022-08-19T08:32:53;76.95;;;45.33;;
64907;SDS011;51412;52.236;5.188;2022-08-19T08:35:21;69.85;;;42.05;;
64907;SDS011;51412;52.236;5.188;2022-08-19T08:37:51;69.75;;;41.08;;
64907;SDS011;51412;52.236;5.188;2022-08-19T08:40:20;74.97;;;41.28;;
64907;SDS011;51412;52.236;5.188;2022-08-19T08:42:51;64.47;;;38.88;;
64907;SDS011;51412;52.236;5.188;2022-08-19T08:45:25;72.68;;;42.72;;
64907;SDS011;51412;52.236;5.188;2022-08-19T08:47:53;71.95;;;40.33;;
64907;SDS011;51412;52.236;5.188;2022-08-19T08:50:25;64.25;;;38.28;;
64907;SDS011;51412;52.236;5.188;2022-08-19T08:53:01;66.60;;;39.58;;
64907;SDS011;51412;52.236;5.188;2022-08-19T08:55:30;65.43;;;38.10;;
64907;SDS011;51412;52.236;5.188;2022-08-19T08:58:00;68.03;;;40.03;;
64907;SDS011;51412;52.236;5.188;2022-08-19T09:00:31;69.45;;;40.90;;
64907;SDS011;51412;52.236;5.188;2022-08-19T09:03:00;67.85;;;41.88;;
64907;SDS011;51412;52.236;5.188;2022-08-19T09:05:32;53.50;;;33.53;;
64907;SDS011;51412;52.236;5.188;2022-08-19T09:08:08;58.40;;;38.42;;
64907;SDS011;51412;52.236;5.188;2022-08-19T09:10:43;56.05;;;35.60;;
64907;SDS011;51412;52.236;5.188;2022-08-19T09:13:17;66.88;;;38.47;;
64907;SDS011;51412;52.236;5.188;2022-08-19T09:15:52;71.80;;;39.60;;
64907;SDS011;51412;52.236;5.188;2022-08-19T09:18:23;61.35;;;39.70;;
64907;SDS011;51412;52.236;5.188;2022-08-19T09:20:50;62.42;;;40.10;;
64907;SDS011;51412;52.236;5.188;2022-08-19T09:23:16;61.40;;;37.65;;
64907;SDS011;51412;52.236;5.188;2022-08-19T09:25:43;54.05;;;36.45;;
64907;SDS011;51412;52.236;5.188;2022-08-19T09:28:09;63.80;;;38.85;;
64907;SDS011;51412;52.236;5.188;2022-08-19T09:30:39;59.78;;;39.67;;
64907;SDS011;51412;52.236;5.188;2022-08-19T09:33:07;54.05;;;38.50;;
64907;SDS011;51412;52.236;5.188;2022-08-19T09:35:34;54.53;;;38.30;;
64907;SDS011;51412;52.236;5.188;2022-08-19T09:38:01;53.42;;;37.15;;
64907;SDS011;51412;52.236;5.188;2022-08-19T09:40:28;57.33;;;36.63;;
64907;SDS011;51412;52.236;5.188;2022-08-19T09:42:55;55.33;;;38.35;;
64907;SDS011;51412;52.236;5.188;2022-08-19T09:45:27;57.88;;;37.95;;
64907;SDS011;51412;52.236;5.188;2022-08-19T09:47:56;57.33;;;34.08;;
64907;SDS011;51412;52.236;5.188;2022-08-19T09:50:23;53.13;;;33.17;;
64907;SDS011;51412;52.236;5.188;2022-08-19T09:52:50;47.80;;;33.15;;
64907;SDS011;51412;52.236;5.188;2022-08-19T09:55:18;46.55;;;33.58;;
64907;SDS011;51412;52.236;5.188;2022-08-19T09:57:45;60.17;;;36.17;;
64907;SDS011;51412;52.236;5.188;2022-08-19T10:00:11;42.50;;;30.63;;
64907;SDS011;51412;52.236;5.188;2022-08-19T10:02:38;45.05;;;30.40;;
64907;SDS011;51412;52.236;5.188;2022-08-19T10:05:06;48.13;;;34.03;;
64907;SDS011;51412;52.236;5.188;2022-08-19T10:07:51;44.63;;;30.17;;
64907;SDS011;51412;52.236;5.188;2022-08-19T10:10:17;43.78;;;30.00;;
64907;SDS011;51412;52.236;5.188;2022-08-19T10:12:44;44.25;;;31.40;;
64907;SDS011;51412;52.236;5.188;2022-08-19T10:15:12;50.95;;;33.50;;
64907;SDS011;51412;52.236;5.188;2022-08-19T10:17:39;44.67;;;32.08;;
64907;SDS011;51412;52.236;5.188;2022-08-19T10:20:08;40.67;;;27.63;;
64907;SDS011;51412;52.236;5.188;2022-08-19T10:22:35;49.10;;;31.08;;
64907;SDS011;51412;52.236;5.188;2022-08-19T10:25:03;46.22;;;31.30;;
64907;SDS011;51412;52.236;5.188;2022-08-19T10:27:30;44.08;;;29.63;;
64907;SDS011;51412;52.236;5.188;2022-08-19T10:29:57;41.28;;;28.48;;
64907;SDS011;51412;52.236;5.188;2022-08-19T10:32:23;43.85;;;30.80;;
64907;SDS011;51412;52.236;5.188;2022-08-19T10:34:50;41.42;;;29.63;;
64907;SDS011;51412;52.236;5.188;2022-08-19T10:37:18;40.85;;;30.10;;
64907;SDS011;51412;52.236;5.188;2022-08-19T10:39:45;46.33;;;29.70;;
64907;SDS011;51412;52.236;5.188;2022-08-19T10:42:12;33.97;;;26.17;;
64907;SDS011;51412;52.236;5.188;2022-08-19T10:44:41;36.13;;;25.95;;
64907;SDS011;51412;52.236;5.188;2022-08-19T10:47:07;34.33;;;26.55;;
64907;SDS011;51412;52.236;5.188;2022-08-19T10:49:34;40.90;;;26.98;;
64907;SDS011;51412;52.236;5.188;2022-08-19T10:52:22;34.80;;;24.92;;
64907;SDS011;51412;52.236;5.188;2022-08-19T10:55:00;32.33;;;24.55;;
64907;SDS011;51412;52.236;5.188;2022-08-19T10:57:45;30.75;;;22.35;;
64907;SDS011;51412;52.236;5.188;2022-08-19T11:00:11;28.13;;;20.90;;
64907;SDS011;51412;52.236;5.188;2022-08-19T11:02:39;29.35;;;18.90;;
64907;SDS011;51412;52.236;5.188;2022-08-19T11:05:06;29.13;;;20.58;;
64907;SDS011;51412;52.236;5.188;2022-08-19T11:07:37;25.92;;;20.35;;
64907;SDS011;51412;52.236;5.188;2022-08-19T11:10:04;24.45;;;16.05;;
64907;SDS011;51412;52.236;5.188;2022-08-19T11:12:31;22.92;;;18.08;;
64907;SDS011;51412;52.236;5.188;2022-08-19T11:14:58;21.70;;;17.25;;
64907;SDS011;51412;52.236;5.188;2022-08-19T11:17:25;27.83;;;17.88;;
64907;SDS011;51412;52.236;5.188;2022-08-19T11:19:51;21.00;;;15.65;;
64907;SDS011;51412;52.236;5.188;2022-08-19T11:22:18;21.88;;;15.15;;
64907;SDS011;51412;52.236;5.188;2022-08-19T11:24:46;20.45;;;13.77;;
64907;SDS011;51412;52.236;5.188;2022-08-19T11:27:12;21.00;;;13.05;;
64907;SDS011;51412;52.236;5.188;2022-08-19T11:29:39;19.98;;;11.23;;
64907;SDS011;51412;52.236;5.188;2022-08-19T11:32:07;19.52;;;15.00;;
64907;SDS011;51412;52.236;5.188;2022-08-19T11:34:35;19.75;;;15.43;;
64907;SDS011;51412;52.236;5.188;2022-08-19T11:37:03;22.98;;;16.80;;
64907;SDS011;51412;52.236;5.188;2022-08-19T11:39:31;18.75;;;14.77;;
64907;SDS011;51412;52.236;5.188;2022-08-19T11:42:00;27.25;;;17.10;;
64907;SDS011;51412;52.236;5.188;2022-08-19T11:44:27;28.58;;;17.90;;
64907;SDS011;51412;52.236;5.188;2022-08-19T11:46:55;23.13;;;16.63;;
64907;SDS011;51412;52.236;5.188;2022-08-19T11:49:22;23.58;;;17.10;;
64907;SDS011;51412;52.236;5.188;2022-08-19T11:51:49;27.60;;;18.23;;
64907;SDS011;51412;52.236;5.188;2022-08-19T11:54:15;23.08;;;17.92;;
64907;SDS011;51412;52.236;5.188;2022-08-19T11:56:43;25.25;;;19.08;;
64907;SDS011;51412;52.236;5.188;2022-08-19T11:59:11;29.40;;;19.48;;
64907;SDS011;51412;52.236;5.188;2022-08-19T12:01:38;31.92;;;21.58;;
64907;SDS011;51412;52.236;5.188;2022-08-19T12:04:05;27.17;;;21.70;;
64907;SDS011;51412;52.236;5.188;2022-08-19T12:06:32;29.10;;;22.65;;
64907;SDS011;51412;52.236;5.188;2022-08-19T12:09:02;28.23;;;22.65;;
64907;SDS011;51412;52.236;5.188;2022-08-19T12:11:32;33.50;;;25.57;;
64907;SDS011;51412;52.236;5.188;2022-08-19T12:13:59;29.17;;;22.88;;
64907;SDS011;51412;52.236;5.188;2022-08-19T12:16:27;28.95;;;23.02;;
64907;SDS011;51412;52.236;5.188;2022-08-19T12:18:56;30.35;;;23.85;;
64907;SDS011;51412;52.236;5.188;2022-08-19T12:21:28;31.10;;;24.30;;
64907;SDS011;51412;52.236;5.188;2022-08-19T12:23:55;30.33;;;21.35;;
64907;SDS011;51412;52.236;5.188;2022-08-19T12:26:23;24.17;;;18.92;;
64907;SDS011;51412;52.236;5.188;2022-08-19T12:28:51;18.17;;;13.82;;
64907;SDS011;51412;52.236;5.188;2022-08-19T12:31:18;18.75;;;14.10;;
64907;SDS011;51412;52.236;5.188;2022-08-19T12:33:46;15.30;;;11.15;;
64907;SDS011;51412;52.236;5.188;2022-08-19T12:36:14;17.60;;;12.85;;
64907;SDS011;51412;52.236;5.188;2022-08-19T12:38:42;20.55;;;13.50;;
64907;SDS011;51412;52.236;5.188;2022-08-19T12:41:10;19.40;;;14.40;;
64907;SDS011;51412;52.236;5.188;2022-08-19T12:43:38;20.35;;;15.20;;
64907;SDS011;51412;52.236;5.188;2022-08-19T12:46:06;17.25;;;13.13;;
64907;SDS011;51412;52.236;5.188;2022-08-19T12:48:33;18.95;;;12.95;;
64907;SDS011;51412;52.236;5.188;2022-08-19T12:51:05;19.52;;;12.30;;
64907;SDS011;51412;52.236;5.188;2022-08-19T12:53:34;18.27;;;12.18;;
64907;SDS011;51412;52.236;5.188;2022-08-19T12:56:01;13.60;;;11.18;;
64907;SDS011;51412;52.236;5.188;2022-08-19T12:58:28;17.20;;;12.23;;
64907;SDS011;51412;52.236;5.188;2022-08-19T13:00:55;13.38;;;10.35;;
64907;SDS011;51412;52.236;5.188;2022-08-19T13:03:22;19.00;;;11.73;;
64907;SDS011;51412;52.236;5.188;2022-08-19T13:05:53;14.05;;;10.60;;
64907;SDS011;51412;52.236;5.188;2022-08-19T13:08:22;13.07;;;9.77;;
64907;SDS011;51412;52.236;5.188;2022-08-19T13:10:48;14.35;;;10.73;;
64907;SDS011;51412;52.236;5.188;2022-08-19T13:13:14;12.95;;;10.00;;
64907;SDS011;51412;52.236;5.188;2022-08-19T13:15:42;12.18;;;8.90;;
64907;SDS011;51412;52.236;5.188;2022-08-19T13:18:10;12.23;;;9.00;;
64907;SDS011;51412;52.236;5.188;2022-08-19T13:20:38;13.85;;;9.40;;
64907;SDS011;51412;52.236;5.188;2022-08-19T13:23:06;14.25;;;9.50;;
64907;SDS011;51412;52.236;5.188;2022-08-19T13:25:34;15.07;;;9.23;;
64907;SDS011;51412;52.236;5.188;2022-08-19T13:28:02;14.02;;;9.85;;
64907;SDS011;51412;52.236;5.188;2022-08-19T13:30:31;14.40;;;9.77;;
64907;SDS011;51412;52.236;5.188;2022-08-19T13:33:15;14.15;;;9.23;;
64907;SDS011;51412;52.236;5.188;2022-08-19T13:35:43;16.40;;;8.52;;
64907;SDS011;51412;52.236;5.188;2022-08-19T13:38:12;10.60;;;9.00;;
64907;SDS011;51412;52.236;5.188;2022-08-19T13:40:41;12.77;;;8.90;;
64907;SDS011;51412;52.236;5.188;2022-08-19T13:43:08;11.90;;;7.45;;
64907;SDS011;51412;52.236;5.188;2022-08-19T13:45:35;10.77;;;7.40;;
64907;SDS011;51412;52.236;5.188;2022-08-19T13:48:02;14.13;;;8.23;;
64907;SDS011;51412;52.236;5.188;2022-08-19T13:50:32;16.85;;;8.38;;
64907;SDS011;51412;52.236;5.188;2022-08-19T13:52:59;12.65;;;8.45;;
64907;SDS011;51412;52.236;5.188;2022-08-19T13:55:27;11.02;;;7.57;;
64907;SDS011;51412;52.236;5.188;2022-08-19T13:57:55;15.98;;;8.30;;
64907;SDS011;51412;52.236;5.188;2022-08-19T14:00:24;9.27;;;6.72;;
64907;SDS011;51412;52.236;5.188;2022-08-19T14:02:53;10.02;;;7.47;;
64907;SDS011;51412;52.236;5.188;2022-08-19T14:05:20;13.02;;;6.80;;
64907;SDS011;51412;52.236;5.188;2022-08-19T14:07:48;8.07;;;6.05;;
64907;SDS011;51412;52.236;5.188;2022-08-19T14:10:15;8.60;;;5.20;;
64907;SDS011;51412;52.236;5.188;2022-08-19T14:12:41;10.80;;;5.10;;
64907;SDS011;51412;52.236;5.188;2022-08-19T14:15:10;8.77;;;4.97;;
64907;SDS011;51412;52.236;5.188;2022-08-19T14:17:37;7.68;;;5.90;;
64907;SDS011;51412;52.236;5.188;2022-08-19T14:20:05;9.70;;;4.88;;
64907;SDS011;51412;52.236;5.188;2022-08-19T14:22:35;9.65;;;4.70;;
64907;SDS011;51412;52.236;5.188;2022-08-19T14:25:03;10.35;;;5.30;;
64907;SDS011;51412;52.236;5.188;2022-08-19T14:27:32;9.48;;;5.30;;
64907;SDS011;51412;52.236;5.188;2022-08-19T14:29:59;7.35;;;5.82;;
64907;SDS011;51412;52.236;5.188;2022-08-19T14:32:27;8.55;;;5.00;;
64907;SDS011;51412;52.236;5.188;2022-08-19T14:34:53;8.43;;;5.97;;